createdAt,value
2023-01-22T00:00:26.721Z,98517.00
2023-01-22T00:02:54.415Z,98517.00
2023-01-22T00:05:23.477Z,98521.00
2023-01-22T00:07:51.081Z,98515.00
2023-01-22T00:10:19.143Z,98515.00
2023-01-22T00:12:47.105Z,98502.00
2023-01-22T00:15:14.782Z,98504.00
2023-01-22T00:17:42.395Z,98498.00
2023-01-22T00:20:12.422Z,98504.00
2023-01-22T00:22:41.521Z,98500.00
2023-01-22T00:25:11.393Z,98497.00
2023-01-22T00:27:39.138Z,98499.00
2023-01-22T00:30:08.426Z,98498.00
2023-01-22T00:32:36.039Z,98503.00
2023-01-22T00:35:03.659Z,98503.00
2023-01-22T00:37:31.295Z,98500.00
2023-01-22T00:40:00.290Z,98493.00
2023-01-22T00:42:27.914Z,98502.00
2023-01-22T00:44:55.548Z,98502.00
2023-01-22T00:47:23.164Z,98493.00
2023-01-22T00:49:50.740Z,98504.00
2023-01-22T00:52:18.603Z,98500.00
2023-01-22T00:54:46.381Z,98497.00
2023-01-22T00:57:15.368Z,98496.00
2023-01-22T00:59:42.935Z,98496.00
2023-01-22T01:02:10.595Z,98498.00
2023-01-22T01:04:38.658Z,98509.00
2023-01-22T01:07:06.456Z,98517.00
2023-01-22T01:09:34.062Z,98516.00
2023-01-22T01:12:04.613Z,98518.00
2023-01-22T01:14:33.845Z,98512.00
2023-01-22T01:17:01.460Z,98507.00
2023-01-22T01:19:29.092Z,98510.00
2023-01-22T01:21:56.706Z,98506.00
2023-01-22T01:24:24.356Z,98513.00
2023-01-22T01:26:51.946Z,98510.00
2023-01-22T01:29:19.811Z,98511.00
2023-01-22T01:31:53.177Z,98517.00
2023-01-22T01:34:21.016Z,98509.00
2023-01-22T01:36:49.733Z,98513.00
2023-01-22T01:39:17.678Z,98508.00
2023-01-22T01:41:45.298Z,98508.00
2023-01-22T01:44:15.262Z,98512.00
2023-01-22T01:46:47.835Z,98512.00
2023-01-22T01:49:26.312Z,98510.00
2023-01-22T01:51:56.767Z,98508.00
2023-01-22T01:54:25.113Z,98503.00
2023-01-22T01:56:57.695Z,98509.00
2023-01-22T01:59:25.517Z,98511.00
2023-01-22T02:01:55.860Z,98511.00
2023-01-22T02:04:25.168Z,98511.00
2023-01-22T02:06:52.738Z,98514.00
2023-01-22T02:09:20.735Z,98524.00
2023-01-22T02:11:49.627Z,98526.00
2023-01-22T02:14:20.221Z,98527.00
2023-01-22T02:16:47.949Z,98523.00
2023-01-22T02:19:15.550Z,98525.00
2023-01-22T02:21:45.495Z,98528.00
2023-01-22T02:24:15.154Z,98535.00
2023-01-22T02:26:44.768Z,98531.00
2023-01-22T02:29:14.269Z,98538.00
2023-01-22T02:31:42.971Z,98535.00
2023-01-22T02:34:12.446Z,98535.00
2023-01-22T02:36:41.000Z,98535.00
2023-01-22T02:39:09.934Z,98529.00
2023-01-22T02:41:37.584Z,98537.00
2023-01-22T02:44:07.387Z,98538.00
2023-01-22T02:46:35.190Z,98527.00
2023-01-22T02:49:03.065Z,98539.00
2023-01-22T02:51:30.767Z,98546.00
2023-01-22T02:53:58.394Z,98545.00
2023-01-22T02:56:27.355Z,98543.00
2023-01-22T02:58:54.965Z,98540.00
2023-01-22T03:01:24.169Z,98540.00
2023-01-22T03:03:53.406Z,98536.00
2023-01-22T03:06:22.327Z,98538.00
2023-01-22T03:08:50.455Z,98541.00
2023-01-22T03:11:18.066Z,98530.00
2023-01-22T03:14:04.785Z,98536.00
2023-01-22T03:16:50.082Z,98530.00
2023-01-22T03:19:35.412Z,98529.00
2023-01-22T03:22:03.056Z,98534.00
2023-01-22T03:24:30.700Z,98537.00
2023-01-22T03:26:58.286Z,98540.00
2023-01-22T03:29:27.224Z,98539.00
2023-01-22T03:31:54.921Z,98540.00
2023-01-22T03:34:23.904Z,98538.00
2023-01-22T03:36:51.551Z,98540.00
2023-01-22T03:39:19.254Z,98535.00
2023-01-22T03:41:46.974Z,98541.00
2023-01-22T03:44:14.554Z,98540.00
2023-01-22T03:46:43.723Z,98542.00
2023-01-22T03:49:14.268Z,98546.00
2023-01-22T03:51:45.504Z,98539.00
2023-01-22T03:54:13.901Z,98543.00
2023-01-22T03:56:42.488Z,98541.00
2023-01-22T03:59:11.118Z,98540.00
2023-01-22T04:01:39.302Z,98545.00
2023-01-22T04:04:08.345Z,98544.00
2023-01-22T04:06:35.957Z,98545.00
2023-01-22T04:09:03.605Z,98547.00
2023-01-22T04:11:31.199Z,98547.00
2023-01-22T04:13:58.844Z,98554.00
2023-01-22T04:16:26.495Z,98548.00
2023-01-22T04:18:54.144Z,98555.00
2023-01-22T04:21:23.115Z,98554.00
2023-01-22T04:23:50.736Z,98558.00
2023-01-22T04:26:18.430Z,98562.00
2023-01-22T04:28:46.022Z,98561.00
2023-01-22T04:31:13.784Z,98566.00
2023-01-22T04:33:41.575Z,98562.00
2023-01-22T04:36:10.706Z,98559.00
2023-01-22T04:38:39.973Z,98556.00
2023-01-22T04:41:07.624Z,98564.00
2023-01-22T04:43:35.220Z,98565.00
2023-01-22T04:46:02.901Z,98571.00
2023-01-22T04:48:30.542Z,98567.00
2023-01-22T04:50:58.173Z,98571.00
2023-01-22T04:53:25.778Z,98568.00
2023-01-22T04:55:54.769Z,98563.00
2023-01-22T04:58:22.388Z,98572.00
2023-01-22T05:00:50.027Z,98578.00
2023-01-22T05:03:17.671Z,98576.00
2023-01-22T05:05:45.329Z,98582.00
2023-01-22T05:08:12.908Z,98580.00
2023-01-22T05:10:40.825Z,98588.00
2023-01-22T05:13:09.786Z,98590.00
2023-01-22T05:15:37.423Z,98594.00
2023-01-22T05:18:05.332Z,98594.00
2023-01-22T05:20:33.000Z,98597.00
2023-01-22T05:23:00.598Z,98598.00
2023-01-22T05:25:28.280Z,98603.00
2023-01-22T05:27:55.907Z,98601.00
2023-01-22T05:30:24.874Z,98597.00
2023-01-22T05:32:56.729Z,98598.00
2023-01-22T05:35:24.371Z,98597.00
2023-01-22T05:37:52.006Z,98593.00
2023-01-22T05:40:20.118Z,98600.00
2023-01-22T05:42:47.836Z,98595.00
2023-01-22T05:45:15.563Z,98599.00
2023-01-22T05:47:44.496Z,98599.00
2023-01-22T05:50:12.152Z,98602.00
2023-01-22T05:52:39.739Z,98605.00
2023-01-22T05:55:08.199Z,98603.00
2023-01-22T05:57:36.882Z,98608.00
2023-01-22T06:00:06.258Z,98613.00
2023-01-22T06:02:33.902Z,98614.00
2023-01-22T06:05:02.898Z,98617.00
2023-01-22T06:07:31.215Z,98613.00
2023-01-22T06:09:59.409Z,98618.00
2023-01-22T06:12:27.177Z,98618.00
2023-01-22T06:14:55.163Z,98619.00
2023-01-22T06:17:23.217Z,98621.00
2023-01-22T06:19:50.823Z,98617.00
2023-01-22T06:22:19.826Z,98625.00
2023-01-22T06:24:47.460Z,98628.00
2023-01-22T06:27:15.089Z,98631.00
2023-01-22T06:29:42.682Z,98636.00
2023-01-22T06:32:10.349Z,98636.00
2023-01-22T06:34:38.233Z,98636.00
2023-01-22T06:37:05.894Z,98640.00
2023-01-22T06:39:34.846Z,98643.00
2023-01-22T06:42:02.463Z,98644.00
2023-01-22T06:44:30.092Z,98648.00
2023-01-22T06:46:57.693Z,98656.00
2023-01-22T06:49:25.295Z,98643.00
2023-01-22T06:51:52.931Z,98656.00
2023-01-22T06:54:20.540Z,98652.00
2023-01-22T06:56:49.521Z,98656.00
2023-01-22T06:59:17.103Z,98658.00
2023-01-22T07:01:44.792Z,98671.00
2023-01-22T07:04:12.460Z,98658.00
2023-01-22T07:06:40.092Z,98667.00
2023-01-22T07:09:07.764Z,98669.00
2023-01-22T07:11:35.388Z,98671.00
2023-01-22T07:14:04.371Z,98675.00
2023-01-22T07:16:32.086Z,98673.00
2023-01-22T07:18:59.721Z,98677.00
2023-01-22T07:21:27.411Z,98670.00
2023-01-22T07:23:55.300Z,98681.00
2023-01-22T07:26:23.155Z,98685.00
2023-01-22T07:28:50.788Z,98680.00
2023-01-22T07:31:19.734Z,98690.00
2023-01-22T07:33:47.645Z,98688.00
2023-01-22T07:36:15.255Z,98691.00
2023-01-22T07:38:42.919Z,98700.00
2023-01-22T07:41:24.556Z,98690.00
2023-01-22T07:43:53.273Z,98692.00
2023-01-22T07:46:22.358Z,98690.00
2023-01-22T07:48:50.010Z,98693.00
2023-01-22T07:51:17.702Z,98701.00
2023-01-22T07:53:45.360Z,98699.00
2023-01-22T07:56:13.142Z,98700.00
2023-01-22T07:58:41.229Z,98708.00
2023-01-22T08:01:11.086Z,98706.00
2023-01-22T08:03:40.667Z,98718.00
2023-01-22T08:06:10.515Z,98721.00
2023-01-22T08:08:38.505Z,98724.00
2023-01-22T08:11:06.297Z,98724.00
2023-01-22T08:13:33.949Z,98728.00
2023-01-22T08:16:01.718Z,98718.00
2023-01-22T08:18:29.885Z,98725.00
2023-01-22T08:21:01.766Z,98728.00
2023-01-22T08:23:29.842Z,98723.00
2023-01-22T08:25:59.406Z,98730.00
2023-01-22T08:28:27.285Z,98724.00
2023-01-22T08:30:58.391Z,98734.00
2023-01-22T08:33:26.617Z,98741.00
2023-01-22T08:35:54.408Z,98735.00
2023-01-22T08:38:23.511Z,98737.00
2023-01-22T08:40:51.870Z,98743.00
2023-01-22T08:43:19.792Z,98743.00
2023-01-22T08:45:50.004Z,98746.00
2023-01-22T08:48:18.075Z,98749.00
2023-01-22T08:50:45.698Z,98753.00
2023-01-22T08:53:13.352Z,98764.00
2023-01-22T08:55:42.398Z,98764.00
2023-01-22T08:58:10.528Z,98763.00
2023-01-22T09:00:38.189Z,98761.00
2023-01-22T09:03:05.806Z,98763.00
2023-01-22T09:05:33.493Z,98769.00
2023-01-22T09:08:01.130Z,98762.00
2023-01-22T09:10:28.744Z,98769.00
2023-01-22T09:12:59.732Z,98780.00
2023-01-22T09:15:27.717Z,98780.00
2023-01-22T09:17:55.351Z,98783.00
2023-01-22T09:20:23.021Z,98777.00
2023-01-22T09:22:50.953Z,98786.00
2023-01-22T09:25:18.739Z,98781.00
2023-01-22T09:27:46.361Z,98793.00
2023-01-22T09:30:16.348Z,98785.00
2023-01-22T09:32:44.124Z,98787.00
2023-01-22T09:35:11.788Z,98801.00
2023-01-22T09:37:39.504Z,98795.00
2023-01-22T09:40:08.555Z,98796.00
2023-01-22T09:42:41.227Z,98803.00
2023-01-22T09:45:13.048Z,98803.00
2023-01-22T09:47:44.783Z,98806.00
2023-01-22T09:50:19.091Z,98808.00
2023-01-22T09:52:47.980Z,98811.00
2023-01-22T09:55:17.953Z,98809.00
2023-01-22T09:57:48.136Z,98805.00
2023-01-22T10:00:19.027Z,98810.00
2023-01-22T10:02:53.619Z,98814.00
2023-01-22T10:05:28.408Z,98812.00
2023-01-22T10:08:11.188Z,98807.00
2023-01-22T10:10:39.024Z,98811.00
2023-01-22T10:13:15.878Z,98807.00
2023-01-22T10:15:43.558Z,98808.00
2023-01-22T10:18:24.495Z,98805.00
2023-01-22T10:20:53.236Z,98805.00
2023-01-22T10:23:22.903Z,98800.00
2023-01-22T10:25:53.208Z,98801.00
2023-01-22T10:28:25.985Z,98801.00
2023-01-22T10:30:57.833Z,98811.00
2023-01-22T10:33:28.801Z,98805.00
2023-01-22T10:35:57.859Z,98815.00
2023-01-22T10:38:28.435Z,98813.00
2023-01-22T10:40:58.365Z,98815.00
2023-01-22T10:43:33.543Z,98816.00
2023-01-22T10:46:06.116Z,98820.00
2023-01-22T10:48:35.166Z,98819.00
2023-01-22T10:51:14.332Z,98827.00
2023-01-22T10:53:47.240Z,98820.00
2023-01-22T10:56:25.870Z,98823.00
2023-01-22T10:58:53.922Z,98826.00
2023-01-22T11:01:29.873Z,98823.00
2023-01-22T11:03:58.922Z,98825.00
2023-01-22T11:06:33.845Z,98822.00
2023-01-22T11:09:06.545Z,98828.00
2023-01-22T11:11:39.856Z,98831.00
2023-01-22T11:14:12.677Z,98827.00
2023-01-22T11:16:42.396Z,98823.00
2023-01-22T11:19:16.809Z,98825.00
2023-01-22T11:21:50.440Z,98825.00
2023-01-22T11:24:22.289Z,98826.00
2023-01-22T11:27:22.026Z,98822.00
2023-01-22T11:30:03.406Z,98822.00
2023-01-22T11:32:46.511Z,98819.00
2023-01-22T11:35:22.859Z,98819.00
2023-01-22T11:38:01.516Z,98813.00
2023-01-22T11:40:31.802Z,98813.00
2023-01-22T11:43:12.429Z,98810.00
2023-01-22T11:46:03.441Z,98811.00
2023-01-22T11:48:41.093Z,98808.00
2023-01-22T11:51:20.481Z,98808.00
2023-01-22T11:54:01.641Z,98811.00
2023-01-22T11:56:48.188Z,98807.00
2023-01-22T11:59:22.108Z,98810.00
2023-01-22T12:02:09.828Z,98810.00
2023-01-22T12:05:00.970Z,98807.00
2023-01-22T12:07:50.665Z,98813.00
2023-01-22T12:10:42.214Z,98806.00
2023-01-22T12:13:26.715Z,98808.00
2023-01-22T12:16:03.522Z,98805.00
2023-01-22T12:18:48.975Z,98809.00
2023-01-22T12:21:27.411Z,98804.00
2023-01-22T12:24:00.105Z,98800.00
2023-01-22T12:26:31.806Z,98798.00
2023-01-22T12:29:06.013Z,98799.00
2023-01-22T12:31:38.473Z,98799.00
2023-01-22T12:34:15.310Z,98798.00
2023-01-22T12:36:44.774Z,98800.00
2023-01-22T12:39:24.380Z,98799.00
2023-01-22T12:42:02.253Z,98798.00
2023-01-22T12:44:44.726Z,98797.00
2023-01-22T12:47:20.400Z,98795.00
2023-01-22T12:49:50.639Z,98800.00
2023-01-22T12:52:33.154Z,98796.00
2023-01-22T12:55:03.646Z,98801.00
2023-01-22T12:57:38.949Z,98802.00
2023-01-22T13:00:24.232Z,98792.00
2023-01-22T13:02:52.288Z,98782.00
2023-01-22T13:05:36.286Z,98791.00
2023-01-22T13:08:07.070Z,98792.00
2023-01-22T13:10:37.508Z,98794.00
2023-01-22T13:13:20.970Z,98793.00
2023-01-22T13:15:54.684Z,98792.00
2023-01-22T13:18:25.628Z,98795.00
2023-01-22T13:21:00.573Z,98791.00
2023-01-22T13:23:28.390Z,98794.00
2023-01-22T13:25:58.645Z,98791.00
2023-01-22T13:28:27.370Z,98791.00
2023-01-22T13:30:59.895Z,98799.00
2023-01-22T13:33:28.014Z,98802.00
2023-01-22T13:35:55.952Z,98803.00
2023-01-22T13:38:25.540Z,98797.00
2023-01-22T13:41:00.433Z,98805.00
2023-01-22T13:43:29.109Z,98813.00
2023-01-22T13:45:58.014Z,98810.00
2023-01-22T13:48:27.519Z,98808.00
2023-01-22T13:50:58.325Z,98811.00
2023-01-22T13:53:30.301Z,98811.00
2023-01-22T13:56:00.893Z,98813.00
2023-01-22T13:58:47.302Z,98810.00
2023-01-22T14:01:28.445Z,98818.00
2023-01-22T14:04:00.471Z,98811.00
2023-01-22T14:06:28.212Z,98807.00
2023-01-22T14:08:57.806Z,98811.00
2023-01-22T14:11:26.867Z,98815.00
2023-01-22T14:13:54.813Z,98813.00
2023-01-22T14:16:22.536Z,98825.00
2023-01-22T14:18:50.200Z,98820.00
2023-01-22T14:21:17.993Z,98826.00
2023-01-22T14:23:46.286Z,98835.00
2023-01-22T14:26:13.926Z,98833.00
2023-01-22T14:28:42.911Z,98834.00
2023-01-22T14:31:10.592Z,98832.00
2023-01-22T14:33:38.291Z,98827.00
2023-01-22T14:36:06.634Z,98837.00
2023-01-22T14:38:34.285Z,98834.00
2023-01-22T14:41:04.603Z,98839.00
2023-01-22T14:43:32.328Z,98848.00
2023-01-22T14:46:01.342Z,98839.00
2023-01-22T14:48:29.152Z,98845.00
2023-01-22T14:50:56.775Z,98841.00
2023-01-22T14:53:24.487Z,98842.00
2023-01-22T14:55:52.118Z,98835.00
2023-01-22T14:58:19.801Z,98845.00
2023-01-22T15:00:47.447Z,98846.00
2023-01-22T15:03:16.422Z,98854.00
2023-01-22T15:05:44.541Z,98862.00
2023-01-22T15:08:12.172Z,98852.00
2023-01-22T15:10:39.797Z,98843.00
2023-01-22T15:13:07.434Z,98848.00
2023-01-22T15:15:35.043Z,98852.00
2023-01-22T15:18:02.658Z,98852.00
2023-01-22T15:20:31.704Z,98842.00
2023-01-22T15:22:59.372Z,98854.00
2023-01-22T15:25:27.903Z,98862.00
2023-01-22T15:27:55.544Z,98859.00
2023-01-22T15:30:23.226Z,98862.00
2023-01-22T15:32:50.913Z,98871.00
2023-01-22T15:35:18.584Z,98881.00
2023-01-22T15:37:48.452Z,98878.00
2023-01-22T15:40:16.980Z,98883.00
2023-01-22T15:42:44.717Z,98884.00
2023-01-22T15:45:12.804Z,98877.00
2023-01-22T15:47:40.406Z,98883.00
2023-01-22T15:50:08.955Z,98890.00
2023-01-22T15:52:36.573Z,98892.00
2023-01-22T15:55:06.560Z,98888.00
2023-01-22T15:57:34.192Z,98890.00
2023-01-22T16:00:01.907Z,98902.00
2023-01-22T16:02:29.558Z,98892.00
2023-01-22T16:04:57.249Z,98888.00
2023-01-22T16:07:24.986Z,98893.00
2023-01-22T16:09:52.620Z,98891.00
2023-01-22T16:12:21.595Z,98889.00
2023-01-22T16:14:49.249Z,98889.00
2023-01-22T16:17:17.000Z,98895.00
2023-01-22T16:19:45.007Z,98898.00
2023-01-22T16:22:12.948Z,98901.00
2023-01-22T16:24:40.597Z,98904.00
2023-01-22T16:27:08.335Z,98905.00
2023-01-22T16:29:37.634Z,98908.00
2023-01-22T16:32:06.016Z,98910.00
2023-01-22T16:34:33.677Z,98913.00
2023-01-22T16:37:01.382Z,98910.00
2023-01-22T16:39:29.041Z,98920.00
2023-01-22T16:41:57.030Z,98917.00
2023-01-22T16:44:27.162Z,98924.00
2023-01-22T16:46:59.820Z,98917.00
2023-01-22T16:49:30.083Z,98922.00
2023-01-22T16:52:05.042Z,98928.00
2023-01-22T16:54:39.172Z,98929.00
2023-01-22T16:57:08.684Z,98931.00
2023-01-22T16:59:37.909Z,98929.00
2023-01-22T17:02:13.395Z,98933.00
2023-01-22T17:04:41.195Z,98935.00
2023-01-22T17:07:27.459Z,98931.00
2023-01-22T17:10:00.218Z,98930.00
2023-01-22T17:12:28.028Z,98932.00
2023-01-22T17:14:57.821Z,98944.00
2023-01-22T17:17:27.047Z,98948.00
2023-01-22T17:19:54.657Z,98946.00
2023-01-22T17:22:22.331Z,98953.00
2023-01-22T17:24:52.629Z,98950.00
2023-01-22T17:27:21.801Z,98953.00
2023-01-22T17:29:49.433Z,98960.00
2023-01-22T17:32:17.181Z,98953.00
2023-01-22T17:34:46.155Z,98963.00
2023-01-22T17:37:13.804Z,98953.00
2023-01-22T17:39:42.973Z,98965.00
2023-01-22T17:42:10.641Z,98969.00
2023-01-22T17:44:39.610Z,98966.00
2023-01-22T17:47:07.982Z,98968.00
2023-01-22T17:49:36.212Z,98978.00
2023-01-22T17:52:05.828Z,98980.00
2023-01-22T17:54:33.464Z,98979.00
2023-01-22T17:57:01.407Z,98977.00
2023-01-22T17:59:29.047Z,98984.00
2023-01-22T18:01:56.881Z,98985.00
2023-01-22T18:04:24.938Z,98990.00
2023-01-22T18:06:53.620Z,98989.00
2023-01-22T18:09:22.607Z,98994.00
2023-01-22T18:11:50.289Z,98999.00
2023-01-22T18:14:22.177Z,99002.00
2023-01-22T18:16:51.024Z,99004.00
2023-01-22T18:19:18.991Z,99010.00
2023-01-22T18:21:46.828Z,99007.00
2023-01-22T18:24:14.534Z,99008.00
2023-01-22T18:26:43.736Z,99009.00
2023-01-22T18:29:11.927Z,99010.00
2023-01-22T18:31:40.158Z,99011.00
2023-01-22T18:34:08.965Z,99024.00
2023-01-22T18:36:38.583Z,99018.00
2023-01-22T18:39:08.626Z,99022.00
2023-01-22T18:41:37.279Z,99019.00
2023-01-22T18:44:08.102Z,99032.00
2023-01-22T18:46:36.941Z,99032.00
2023-01-22T18:49:07.733Z,99038.00
2023-01-22T18:51:35.826Z,99034.00
2023-01-22T18:54:05.325Z,99032.00
2023-01-22T18:56:33.210Z,99036.00
2023-01-22T18:59:01.533Z,99028.00
2023-01-22T19:01:33.418Z,99030.00
2023-01-22T19:04:04.416Z,99034.00
2023-01-22T19:06:36.559Z,99035.00
2023-01-22T19:09:07.063Z,99038.00
2023-01-22T19:11:36.705Z,99051.00
2023-01-22T19:14:07.121Z,99035.00
2023-01-22T19:16:37.225Z,99034.00
2023-01-22T19:19:11.081Z,99036.00
2023-01-22T19:21:40.481Z,99041.00
2023-01-22T19:24:09.552Z,99035.00
2023-01-22T19:26:39.591Z,99033.00
2023-01-22T19:29:10.393Z,99035.00
2023-01-22T19:31:41.448Z,99036.00
2023-01-22T19:34:09.937Z,99038.00
2023-01-22T19:36:38.896Z,99037.00
2023-01-22T19:39:09.459Z,99048.00
2023-01-22T19:41:37.647Z,99037.00
2023-01-22T19:44:05.613Z,99033.00
2023-01-22T19:46:34.483Z,99040.00
2023-01-22T19:49:03.529Z,99039.00
2023-01-22T19:51:31.610Z,99051.00
2023-01-22T19:54:00.642Z,99049.00
2023-01-22T19:56:29.609Z,99055.00
2023-01-22T19:58:59.903Z,99047.00
2023-01-22T20:01:27.758Z,99054.00
2023-01-22T20:03:56.535Z,99063.00
2023-01-22T20:06:26.096Z,99066.00
2023-01-22T20:08:56.125Z,99062.00
2023-01-22T20:11:24.581Z,99068.00
2023-01-22T20:13:52.872Z,99057.00
2023-01-22T20:16:22.690Z,99057.00
2023-01-22T20:18:51.200Z,99063.00
2023-01-22T20:21:20.655Z,99060.00
2023-01-22T20:23:51.131Z,99066.00
2023-01-22T20:26:22.361Z,99069.00
2023-01-22T20:28:51.608Z,99072.00
2023-01-22T20:31:23.421Z,99063.00
2023-01-22T20:33:52.488Z,99069.00
2023-01-22T20:36:21.087Z,99068.00
2023-01-22T20:38:52.927Z,99081.00
2023-01-22T20:41:21.690Z,99074.00
2023-01-22T20:43:49.700Z,99072.00
2023-01-22T20:46:19.509Z,99069.00
2023-01-22T20:48:47.413Z,99075.00
2023-01-22T20:51:17.107Z,99077.00
2023-01-22T20:53:45.208Z,99080.00
2023-01-22T20:56:15.679Z,99086.00
2023-01-22T20:58:43.840Z,99081.00
2023-01-22T21:01:14.563Z,99082.00
2023-01-22T21:03:43.916Z,99090.00
2023-01-22T21:06:14.816Z,99090.00
2023-01-22T21:08:43.132Z,99083.00
2023-01-22T21:11:13.138Z,99090.00
2023-01-22T21:13:42.121Z,99096.00
2023-01-22T21:16:11.680Z,99099.00
2023-01-22T21:18:41.539Z,99093.00
2023-01-22T21:21:09.722Z,99100.00
2023-01-22T21:23:38.829Z,99099.00
2023-01-22T21:26:07.859Z,99102.00
2023-01-22T21:28:35.714Z,99103.00
2023-01-22T21:31:09.131Z,99100.00
2023-01-22T21:33:36.953Z,99109.00
2023-01-22T21:36:05.864Z,99111.00
2023-01-22T21:38:33.701Z,99106.00
2023-01-22T21:41:05.883Z,99112.00
2023-01-22T21:43:51.418Z,99117.00
2023-01-22T21:46:25.011Z,99124.00
2023-01-22T21:48:54.329Z,99119.00
2023-01-22T21:51:22.004Z,99132.00
2023-01-22T21:53:49.718Z,99131.00
2023-01-22T21:56:17.458Z,99128.00
2023-01-22T21:58:45.274Z,99127.00
2023-01-22T22:01:16.174Z,99125.00
2023-01-22T22:03:45.393Z,99128.00
2023-01-22T22:06:14.489Z,99131.00
2023-01-22T22:08:44.425Z,99125.00
2023-01-22T22:11:14.503Z,99127.00
2023-01-22T22:13:42.729Z,99132.00
2023-01-22T22:16:11.555Z,99128.00
2023-01-22T22:18:39.453Z,99131.00
2023-01-22T22:21:09.586Z,99134.00
2023-01-22T22:23:37.666Z,99131.00
2023-01-22T22:26:06.160Z,99137.00
2023-01-22T22:28:35.296Z,99130.00
2023-01-22T22:31:04.839Z,99133.00
2023-01-22T22:33:32.641Z,99132.00
2023-01-22T22:36:01.949Z,99125.00
2023-01-22T22:38:31.757Z,99134.00
2023-01-22T22:41:01.311Z,99142.00
2023-01-22T22:43:32.739Z,99128.00
2023-01-22T22:46:05.802Z,99129.00
2023-01-22T22:48:34.130Z,99129.00
2023-01-22T22:51:02.221Z,99131.00
2023-01-22T22:53:31.224Z,99139.00
2023-01-22T22:55:58.931Z,99142.00
2023-01-22T22:58:26.601Z,99134.00
2023-01-22T23:00:54.423Z,99133.00
2023-01-22T23:03:22.273Z,99135.00
2023-01-22T23:05:50.161Z,99153.00
2023-01-22T23:08:17.860Z,99145.00
2023-01-22T23:10:47.129Z,99138.00
2023-01-22T23:13:15.399Z,99134.00
2023-01-22T23:15:43.208Z,99144.00
2023-01-22T23:18:10.961Z,99145.00
2023-01-22T23:20:38.695Z,99151.00
2023-01-22T23:23:06.287Z,99155.00
2023-01-22T23:25:34.162Z,99160.00
2023-01-22T23:28:03.116Z,99165.00
2023-01-22T23:30:31.332Z,99155.00
2023-01-22T23:32:59.668Z,99154.00
2023-01-22T23:35:28.100Z,99156.00
2023-01-22T23:37:56.090Z,99159.00
2023-01-22T23:40:24.042Z,99153.00
2023-01-22T23:42:51.804Z,99158.00
2023-01-22T23:45:20.787Z,99153.00
2023-01-22T23:47:48.449Z,99147.00
2023-01-22T23:50:17.061Z,99155.00
2023-01-22T23:52:44.860Z,99149.00
2023-01-22T23:55:12.587Z,99152.00
2023-01-22T23:57:40.313Z,99146.00
